createdAt,value
2023-05-09T00:01:58.670Z,75.71
2023-05-09T00:05:35.106Z,75.76
2023-05-09T00:09:13.081Z,75.71
2023-05-09T00:12:50.753Z,76.07
2023-05-09T00:16:29.061Z,76.15
2023-05-09T00:20:11.973Z,75.93
2023-05-09T00:23:43.172Z,75.93
2023-05-09T00:27:20.658Z,76.15
2023-05-09T00:30:58.862Z,76.05
2023-05-09T00:34:36.858Z,75.99
2023-05-09T00:38:14.069Z,75.88
2023-05-09T00:41:52.219Z,76.19
2023-05-09T00:45:29.221Z,76.85
2023-05-09T00:49:07.073Z,76.82
2023-05-09T00:52:44.828Z,76.79
2023-05-09T00:56:22.632Z,76.64
2023-05-09T01:00:01.079Z,76.94
2023-05-09T01:03:41.245Z,77.73
2023-05-09T01:07:37.030Z,77.68
2023-05-09T01:11:07.329Z,77.79
2023-05-09T01:14:55.573Z,77.73
2023-05-09T01:18:35.202Z,78.27
2023-05-09T01:21:52.673Z,78.81
2023-05-09T01:25:49.567Z,78.65
2023-05-09T01:29:34.502Z,78.24
2023-05-09T01:32:52.412Z,78.25
2023-05-09T01:36:33.301Z,78.08
2023-05-09T01:40:13.570Z,78.21
2023-05-09T01:44:06.007Z,78.53
2023-05-09T01:47:41.115Z,78.80
2023-05-09T01:51:00.371Z,79.33
2023-05-09T01:58:15.048Z,79.52
2023-05-09T02:01:53.398Z,79.71
2023-05-09T02:05:31.169Z,79.31
2023-05-09T02:09:07.107Z,79.52
2023-05-09T02:12:44.510Z,80.18
2023-05-09T02:16:22.726Z,80.06
2023-05-09T02:20:00.029Z,80.09
2023-05-09T02:23:37.525Z,79.88
2023-05-09T02:27:15.942Z,79.94
2023-05-09T02:30:54.882Z,80.04
2023-05-09T02:34:31.057Z,79.88
2023-05-09T02:38:08.373Z,80.00
2023-05-09T02:41:49.727Z,80.33
2023-05-09T02:45:23.521Z,80.71
2023-05-09T02:49:01.078Z,80.77
2023-05-09T02:52:38.595Z,80.74
2023-05-09T02:56:16.958Z,81.97
2023-05-09T02:59:53.963Z,82.61
2023-05-09T03:03:34.844Z,82.41
2023-05-09T03:07:09.406Z,83.05
2023-05-09T03:10:48.007Z,83.07
2023-05-09T03:14:24.858Z,83.31
2023-05-09T03:18:02.601Z,83.42
2023-05-09T03:21:42.000Z,82.99
2023-05-09T03:25:18.062Z,82.96
2023-05-09T03:28:55.925Z,82.33
2023-05-09T03:32:33.541Z,81.52
2023-05-09T03:36:10.701Z,81.39
2023-05-09T03:39:48.980Z,80.34
2023-05-09T03:43:26.706Z,79.63
2023-05-09T03:47:04.064Z,79.12
2023-05-09T03:50:41.842Z,78.22
2023-05-09T03:54:19.468Z,76.59
2023-05-09T03:57:56.750Z,75.88
2023-05-09T04:01:34.565Z,75.96
2023-05-09T04:05:12.610Z,77.59
2023-05-09T04:08:50.002Z,78.60
2023-05-09T04:12:27.592Z,78.87
2023-05-09T04:19:43.409Z,79.28
2023-05-09T04:23:20.559Z,79.04
2023-05-09T04:26:58.518Z,78.60
2023-05-09T04:30:36.788Z,78.41
2023-05-09T04:34:13.695Z,78.31
2023-05-09T04:37:52.019Z,77.71
2023-05-09T04:41:29.587Z,77.65
2023-05-09T04:45:07.523Z,78.55
2023-05-09T04:48:44.640Z,78.34
2023-05-09T04:55:59.676Z,78.19
2023-05-09T04:59:38.211Z,77.85
2023-05-09T05:03:15.402Z,76.49
2023-05-09T05:06:52.725Z,76.23
2023-05-09T05:10:30.762Z,74.80
2023-05-09T05:14:08.009Z,73.45
2023-05-09T05:17:45.732Z,71.72
2023-05-09T05:21:23.484Z,71.06
2023-05-09T05:25:01.454Z,71.60
2023-05-09T05:28:39.059Z,71.85
2023-05-09T05:32:16.401Z,71.47
2023-05-09T05:35:54.474Z,72.45
2023-05-09T05:39:32.031Z,72.74
2023-05-09T05:43:09.085Z,72.29
2023-05-09T05:46:47.340Z,71.63
2023-05-09T05:50:24.556Z,69.89
2023-05-09T05:54:02.506Z,70.17
2023-05-09T05:57:40.550Z,69.20
2023-05-09T06:01:18.021Z,67.48
2023-05-09T06:04:56.120Z,67.79
2023-05-09T06:08:33.106Z,68.45
2023-05-09T06:12:12.136Z,68.34
2023-05-09T06:15:48.419Z,68.10
2023-05-09T06:19:26.646Z,66.26
2023-05-09T06:23:03.843Z,65.93
2023-05-09T06:26:41.962Z,65.83
2023-05-09T06:30:26.414Z,66.07
2023-05-09T06:33:57.565Z,66.32
2023-05-09T06:37:53.299Z,64.93
2023-05-09T06:41:12.379Z,64.53
2023-05-09T06:44:49.812Z,64.48
2023-05-09T06:48:27.706Z,64.50
2023-05-09T06:52:05.363Z,64.02
2023-05-09T06:55:42.848Z,62.29
2023-05-09T06:59:20.723Z,61.72
2023-05-09T07:03:17.449Z,62.26
2023-05-09T07:06:36.315Z,61.54
2023-05-09T07:10:13.480Z,60.84
2023-05-09T07:14:10.391Z,61.28
2023-05-09T07:21:06.749Z,60.63
2023-05-09T07:24:44.709Z,60.71
2023-05-09T07:28:22.072Z,60.60
2023-05-09T07:31:59.410Z,60.73
2023-05-09T07:35:37.749Z,61.30
2023-05-09T07:39:14.829Z,61.48
2023-05-09T07:42:55.269Z,61.78
2023-05-09T07:46:30.677Z,61.33
2023-05-09T07:50:08.633Z,61.62
2023-05-09T07:53:45.692Z,61.24
2023-05-09T07:57:23.536Z,61.30
2023-05-09T08:01:01.301Z,59.35
2023-05-09T08:04:39.202Z,58.80
2023-05-09T08:08:16.187Z,56.79
2023-05-09T08:11:53.810Z,56.26
2023-05-09T08:15:32.610Z,54.66
2023-05-09T08:19:09.661Z,54.29
2023-05-09T08:22:47.034Z,53.46
2023-05-09T08:26:44.475Z,52.93
2023-05-09T08:30:02.483Z,53.46
2023-05-09T08:33:41.779Z,53.51
2023-05-09T08:37:17.924Z,53.25
2023-05-09T08:41:02.172Z,52.85
2023-05-09T08:44:33.058Z,51.91
2023-05-09T08:48:31.307Z,52.05
2023-05-09T08:51:48.988Z,51.50
2023-05-09T08:55:27.752Z,51.13
2023-05-09T08:59:05.902Z,50.81
2023-05-09T09:02:42.595Z,51.01
2023-05-09T09:06:21.615Z,50.84
2023-05-09T09:09:58.990Z,50.28
2023-05-09T09:13:38.933Z,50.26
2023-05-09T09:17:18.758Z,49.49
2023-05-09T09:20:58.054Z,49.28
2023-05-09T09:24:27.775Z,48.26
2023-05-09T09:28:05.992Z,47.14
2023-05-09T09:31:47.623Z,44.77
2023-05-09T09:35:20.619Z,43.95
2023-05-09T09:39:06.751Z,43.74
2023-05-09T09:42:49.108Z,42.96
2023-05-09T09:46:17.454Z,43.19
2023-05-09T09:49:51.844Z,43.70
2023-05-09T09:53:32.128Z,43.63
2023-05-09T10:00:46.314Z,40.24
2023-05-09T10:04:22.966Z,39.85
2023-05-09T10:08:04.886Z,40.72
2023-05-09T10:11:37.491Z,40.78
2023-05-09T10:15:21.885Z,41.06
2023-05-09T10:18:53.405Z,39.66
2023-05-09T10:22:34.045Z,40.18
2023-05-09T10:26:23.486Z,41.20
2023-05-09T10:29:51.824Z,41.33
2023-05-09T10:33:48.093Z,39.13
2023-05-09T10:37:04.248Z,39.85
2023-05-09T10:40:41.419Z,38.77
2023-05-09T10:44:19.198Z,39.16
2023-05-09T10:47:57.392Z,40.39
2023-05-09T10:51:34.130Z,41.23
2023-05-09T10:55:12.958Z,41.48
2023-05-09T10:58:49.166Z,42.80
2023-05-09T11:02:31.299Z,44.50
2023-05-09T11:06:04.556Z,44.50
2023-05-09T11:09:42.254Z,45.67
2023-05-09T11:13:24.003Z,45.00
2023-05-09T11:16:59.905Z,46.46
2023-05-09T11:20:36.639Z,47.41
2023-05-09T11:24:17.365Z,48.77
2023-05-09T11:27:50.858Z,49.07
2023-05-09T11:31:30.999Z,49.63
2023-05-09T11:35:09.657Z,49.55
2023-05-09T11:38:43.860Z,50.51
2023-05-09T11:42:23.146Z,51.13
2023-05-09T11:45:59.792Z,50.57
2023-05-09T11:49:37.442Z,50.85
2023-05-09T11:53:14.462Z,51.05
2023-05-09T11:56:51.927Z,51.80
2023-05-09T12:00:31.953Z,51.39
2023-05-09T12:07:45.375Z,50.70
2023-05-09T12:11:24.468Z,51.06
2023-05-09T12:15:07.901Z,51.74
2023-05-09T12:18:38.330Z,52.46
2023-05-09T12:22:16.826Z,53.45
2023-05-09T12:25:55.172Z,53.28
2023-05-09T12:29:31.901Z,52.92
2023-05-09T12:33:10.861Z,53.09
2023-05-09T12:36:51.738Z,53.28
2023-05-09T12:40:25.272Z,53.41
2023-05-09T12:44:02.314Z,53.63
2023-05-09T12:47:42.003Z,54.21
2023-05-09T12:51:22.716Z,54.49
2023-05-09T12:54:54.805Z,53.91
2023-05-09T13:02:10.967Z,54.42
2023-05-09T13:05:59.357Z,54.29
2023-05-09T13:09:26.669Z,54.95
2023-05-09T13:13:04.502Z,54.90
2023-05-09T13:16:41.464Z,54.91
2023-05-09T13:20:19.450Z,55.11
2023-05-09T13:23:56.966Z,55.37
2023-05-09T13:27:34.405Z,55.62
2023-05-09T13:31:11.754Z,55.90
2023-05-09T13:34:49.156Z,56.02
2023-05-09T13:38:30.799Z,56.29
2023-05-09T13:42:04.293Z,55.97
2023-05-09T13:45:42.535Z,56.28
2023-05-09T13:49:38.472Z,55.93
2023-05-09T13:52:57.483Z,56.03
2023-05-09T13:56:35.560Z,56.55
2023-05-09T14:00:15.555Z,56.72
2023-05-09T14:03:50.455Z,56.80
2023-05-09T14:07:28.239Z,57.01
2023-05-09T14:11:06.117Z,56.98
2023-05-09T14:14:43.582Z,56.84
2023-05-09T14:18:21.442Z,57.25
2023-05-09T14:21:59.028Z,57.51
2023-05-09T14:25:36.493Z,57.62
2023-05-09T14:32:51.832Z,57.55
2023-05-09T14:36:30.215Z,57.69
2023-05-09T14:40:08.717Z,57.72
2023-05-09T14:43:44.949Z,58.15
2023-05-09T14:47:22.967Z,58.03
2023-05-09T14:51:02.029Z,58.20
2023-05-09T14:54:37.961Z,58.25
2023-05-09T14:58:16.401Z,57.97
2023-05-09T15:01:53.767Z,58.48
2023-05-09T15:05:31.198Z,58.93
2023-05-09T15:09:08.658Z,59.17
2023-05-09T15:12:47.542Z,59.20
2023-05-09T15:20:03.000Z,59.67
2023-05-09T15:23:40.031Z,59.86
2023-05-09T15:27:17.196Z,60.34
2023-05-09T15:30:55.047Z,61.05
2023-05-09T15:34:32.313Z,61.66
2023-05-09T15:38:12.417Z,61.99
2023-05-09T15:41:47.848Z,62.60
2023-05-09T15:45:25.609Z,62.90
2023-05-09T15:49:03.660Z,63.47
2023-05-09T15:52:40.943Z,63.21
2023-05-09T15:56:18.627Z,63.30
2023-05-09T15:59:56.283Z,62.87
2023-05-09T16:07:11.848Z,63.40
2023-05-09T16:10:49.582Z,63.61
2023-05-09T16:14:27.601Z,64.10
2023-05-09T16:18:04.513Z,64.69
2023-05-09T16:21:42.506Z,65.10
2023-05-09T16:25:20.085Z,64.77
2023-05-09T16:28:57.955Z,64.97
2023-05-09T16:32:54.115Z,65.48
2023-05-09T16:36:16.556Z,65.44
2023-05-09T16:39:50.459Z,65.31
2023-05-09T16:43:28.863Z,64.89
2023-05-09T16:47:06.329Z,64.56
2023-05-09T16:50:45.604Z,63.73
2023-05-09T16:54:21.779Z,63.46
2023-05-09T16:57:59.204Z,63.19
2023-05-09T17:01:36.845Z,63.23
2023-05-09T17:05:14.573Z,63.91
2023-05-09T17:08:54.544Z,63.51
2023-05-09T17:12:30.568Z,63.07
2023-05-09T17:16:07.311Z,62.95
2023-05-09T17:19:45.805Z,62.58
2023-05-09T17:23:22.803Z,61.80
2023-05-09T17:27:13.067Z,61.02
2023-05-09T17:30:39.816Z,60.75
2023-05-09T17:34:15.813Z,61.54
2023-05-09T17:37:53.421Z,62.22
2023-05-09T17:41:31.551Z,62.52
2023-05-09T17:45:11.026Z,63.04
2023-05-09T17:48:48.159Z,63.00
2023-05-09T17:52:23.906Z,63.46
2023-05-09T17:56:03.067Z,63.61
2023-05-09T17:59:41.538Z,64.06
2023-05-09T18:03:18.628Z,64.36
2023-05-09T18:06:55.718Z,64.55
2023-05-09T18:10:54.150Z,64.93
2023-05-09T18:14:10.386Z,65.49
2023-05-09T18:17:49.588Z,65.82
2023-05-09T18:21:25.823Z,66.44
2023-05-09T18:25:02.997Z,66.89
2023-05-09T18:28:40.957Z,67.11
2023-05-09T18:32:19.492Z,67.48
2023-05-09T18:35:56.265Z,67.47
2023-05-09T18:39:33.884Z,67.68
2023-05-09T18:43:11.937Z,68.06
2023-05-09T18:46:49.391Z,68.93
2023-05-09T18:50:30.763Z,69.14
2023-05-09T18:54:05.284Z,69.04
2023-05-09T18:57:42.030Z,69.41
2023-05-09T19:01:20.074Z,69.54
2023-05-09T19:04:57.539Z,69.47
2023-05-09T19:08:35.298Z,69.37
2023-05-09T19:12:13.208Z,69.92
2023-05-09T19:15:50.894Z,70.72
2023-05-09T19:19:28.491Z,71.15
2023-05-09T19:23:06.133Z,70.45
2023-05-09T19:26:43.564Z,70.64
2023-05-09T19:30:21.655Z,71.13
2023-05-09T19:33:59.002Z,72.09
2023-05-09T19:37:37.692Z,72.38
2023-05-09T19:41:14.543Z,73.19
2023-05-09T19:44:54.684Z,73.13
2023-05-09T19:48:29.774Z,72.81
2023-05-09T19:52:07.379Z,73.15
2023-05-09T19:55:47.185Z,72.79
2023-05-09T19:59:23.443Z,73.08
2023-05-09T20:03:00.397Z,72.78
2023-05-09T20:06:51.631Z,73.07
2023-05-09T20:10:16.313Z,72.75
2023-05-09T20:13:53.482Z,72.79
2023-05-09T20:17:31.478Z,72.50
2023-05-09T20:21:10.120Z,71.49
2023-05-09T20:24:46.611Z,70.99
2023-05-09T20:28:24.399Z,70.30
2023-05-09T20:32:01.610Z,69.93
2023-05-09T20:35:45.739Z,72.50
2023-05-09T20:39:18.787Z,69.90
2023-05-09T20:42:54.561Z,68.83
2023-05-09T20:46:32.637Z,68.91
2023-05-09T20:50:10.248Z,67.78
2023-05-09T20:53:47.835Z,67.64
2023-05-09T20:57:25.775Z,68.57
2023-05-09T21:01:03.840Z,68.82
2023-05-09T21:04:40.947Z,68.59
2023-05-09T21:08:18.586Z,68.40
2023-05-09T21:11:56.271Z,68.72
2023-05-09T21:15:33.888Z,69.13
2023-05-09T21:19:11.419Z,69.38
2023-05-09T21:22:49.725Z,68.72
2023-05-09T21:26:29.465Z,67.33
2023-05-09T21:33:42.141Z,68.56
2023-05-09T21:37:20.229Z,68.78
2023-05-09T21:40:58.416Z,69.44
2023-05-09T21:44:35.941Z,70.58
2023-05-09T21:48:12.726Z,71.40
2023-05-09T21:51:50.633Z,72.58
2023-05-09T21:55:28.278Z,72.14
2023-05-09T21:59:06.295Z,71.49
2023-05-09T22:02:44.069Z,73.63
2023-05-09T22:06:21.556Z,72.84
2023-05-09T22:09:59.312Z,73.40
2023-05-09T22:13:36.607Z,71.70
2023-05-09T22:17:14.395Z,71.87
2023-05-09T22:20:52.232Z,72.88
2023-05-09T22:24:29.636Z,74.16
2023-05-09T22:31:45.889Z,75.13
2023-05-09T22:35:22.853Z,74.68
2023-05-09T22:39:00.352Z,73.47
2023-05-09T22:46:15.469Z,72.64
2023-05-09T22:49:53.730Z,72.37
2023-05-09T22:53:50.234Z,72.80
2023-05-09T22:57:08.736Z,72.81
2023-05-09T23:00:46.129Z,72.72
2023-05-09T23:04:23.958Z,72.75
2023-05-09T23:08:01.739Z,72.77
2023-05-09T23:11:39.293Z,72.70
2023-05-09T23:15:16.786Z,72.73
2023-05-09T23:18:54.711Z,72.26
2023-05-09T23:22:32.477Z,72.55
2023-05-09T23:26:10.330Z,72.30
2023-05-09T23:29:47.600Z,71.76
2023-05-09T23:33:25.584Z,71.20
2023-05-09T23:37:03.853Z,71.25
2023-05-09T23:40:40.793Z,71.39
2023-05-09T23:44:18.056Z,71.43
2023-05-09T23:48:15.057Z,71.71
2023-05-09T23:51:33.393Z,71.66
2023-05-09T23:55:11.741Z,71.82
2023-05-09T23:58:48.789Z,71.94
